ENSH/SVJ METAR and TAF weather

Enter ICAO airport designator
Station Type Date Time Source
ENSH METAR 2019/08/24 11:50 UTC NOAA

ENSH 241150Z 01007KT 9999 FEW025 BKN038 12/06 Q1024 RMK WIND 150FT 01009KT


Station Type Date Time Source
ENSH Decoded METAR 2019/08/24 11:50 UTC NOAA

Station name not available
Aug 24, 2019 - 07:50 AM EDT / 2019.08.24 1150 UTC
Wind: from the N (010 degrees) at 8 MPH (7 KT):0
Visibility: greater than 7 mile(s):0
Sky conditions: mostly cloudy
Temperature: 53 F (12 C)
Dew Point: 42 F (6 C)
Relative Humidity: 66%
Pressure (altimeter): 30.24 in. Hg (1024 hPa)
ob: ENSH 241150Z 01007KT 9999 FEW025 BKN038 12/06 Q1024 RMK WIND 150FT 01009KT
cycle: 12

Station Type Date Time Source
ENSH TAF UTC NOAA

Error!

Example: see airport list